Time;durP1;ratioP1;P1;durP2;ratioP2;P2;SDS_P1;SDS_P2;PMS_P1;PMS_P2;Temp;Humidity;BMP_temperature;BMP_pressure;BME280_temperature;BME280_humidity;BME280_pressure;Samples;Min_cycle;Max_cycle;Signal;HPM_P1;HPM_P2
2021/03/05 00:02:20;;;;;;;0.65;0.65;;;;;;;4.71;79.08;100074.48;1731136;82;21142;-49
2021/03/05 00:05:21;;;;;;;1.45;1.35;;;;;;;4.66;79.28;100070.36;1737812;82;21146;-49
2021/03/05 00:08:22;;;;;;;1.27;1.07;;;;;;;4.63;79.40;100072.21;1737861;82;21177;-49
2021/03/05 00:11:24;;;;;;;2.83;2.60;;;;;;;4.60;79.54;100073.23;1768921;81;21446;-49
2021/03/05 00:14:24;;;;;;;1.35;1.25;;;;;;;4.55;79.72;100086.17;1768958;81;21261;-49
2021/03/05 00:17:24;;;;;;;3.10;2.67;;;;;;;4.51;79.91;100082.32;1767170;81;21418;-49
2021/03/05 00:20:29;;;;;;;1.25;1.15;;;;;;;4.48;80.04;100082.28;1769197;81;21094;-49
2021/03/05 00:23:29;;;;;;;2.27;2.08;;;;;;;4.47;80.15;100087.39;1769221;81;21600;-50
2021/03/05 00:26:29;;;;;;;0.88;0.88;;;;;;;4.45;80.28;100076.02;1769109;81;21192;-48
2021/03/05 00:29:30;;;;;;;0.20;0.20;;;;;;;4.43;80.38;100080.05;1768976;81;21231;-50
2021/03/05 00:32:31;;;;;;;1.15;0.53;;;;;;;4.41;80.47;100080.82;1768919;81;22008;-48
2021/03/05 00:35:32;;;;;;;2.60;0.90;;;;;;;4.39;80.62;100077.54;1766903;81;21137;-49
2021/03/05 00:38:33;;;;;;;2.90;1.80;;;;;;;4.35;80.67;100085.85;1769130;81;21200;-48
2021/03/05 00:41:35;;;;;;;3.15;1.80;;;;;;;4.31;80.87;100087.70;1769044;81;21168;-49
2021/03/05 00:44:35;;;;;;;1.65;1.52;;;;;;;4.29;80.99;100095.78;1752753;81;21480;-49
2021/03/05 00:47:36;;;;;;;2.65;2.45;;;;;;;4.27;81.13;100092.50;1738569;82;21141;-49
2021/03/05 00:50:38;;;;;;;2.85;0.85;;;;;;;4.23;81.37;100103.00;1738571;82;21173;-49
2021/03/05 00:53:38;;;;;;;0.75;0.30;;;;;;;4.22;81.51;100105.94;1766470;81;21114;-49
2021/03/05 00:56:39;;;;;;;1.02;0.65;;;;;;;4.19;81.68;100108.61;1769188;81;21133;-49
2021/03/05 00:59:39;;;;;;;1.22;1.15;;;;;;;4.19;81.82;100111.31;1769069;81;21161;-49
2021/03/05 01:02:39;;;;;;;1.47;0.93;;;;;;;4.16;81.88;100103.70;1769043;81;21193;-49
2021/03/05 01:05:39;;;;;;;0.50;0.50;;;;;;;4.14;82.02;100109.88;1768883;81;21114;-49
2021/03/05 01:08:41;;;;;;;1.37;1.37;;;;;;;4.10;82.12;100116.83;1767166;81;21161;-49
2021/03/05 01:11:42;;;;;;;3.00;2.25;;;;;;;4.06;82.46;100116.52;1768949;81;21196;-49
2021/03/05 01:14:43;;;;;;;2.22;2.02;;;;;;;3.99;82.88;100119.09;1769030;81;21133;-49
2021/03/05 01:17:43;;;;;;;2.55;1.95;;;;;;;3.88;83.13;100121.61;1769071;81;21161;-49
2021/03/05 01:20:44;;;;;;;0.35;0.35;;;;;;;3.79;83.41;100128.47;1769027;81;21170;-49
2021/03/05 01:23:44;;;;;;;1.75;1.65;;;;;;;3.72;83.64;100144.55;1769108;81;21189;-48
2021/03/05 01:26:46;;;;;;;2.00;1.47;;;;;;;3.68;83.82;100144.19;1766763;81;21133;-49
2021/03/05 01:29:46;;;;;;;2.15;1.82;;;;;;;3.63;83.97;100138.69;1769098;81;21122;-49
2021/03/05 01:32:46;;;;;;;0.93;0.93;;;;;;;3.57;84.11;100146.42;1768987;81;21134;-49
2021/03/05 01:35:47;;;;;;;0.53;0.53;;;;;;;3.52;84.28;100139.57;1768923;81;21134;-49
2021/03/05 01:38:48;;;;;;;1.37;1.17;;;;;;;3.49;84.41;100129.22;1768948;81;21198;-49
2021/03/05 01:41:48;;;;;;;2.47;1.45;;;;;;;3.46;84.63;100146.73;1769028;81;21489;-49
2021/03/05 01:44:49;;;;;;;1.05;1.02;;;;;;;3.41;84.80;100144.78;1727487;81;21517;-49
2021/03/05 01:47:50;;;;;;;2.77;2.17;;;;;;;3.36;84.96;100146.03;1738485;82;21572;-48
2021/03/05 01:51:05;;;;;;;1.40;1.30;;;;;;;3.35;85.04;100151.12;1738600;82;21206;-49
2021/03/05 01:54:05;;;;;;;2.55;2.05;;;;;;;3.33;85.25;100147.02;1738567;82;21126;-49
2021/03/05 01:57:08;;;;;;;1.70;1.62;;;;;;;3.29;85.40;100152.59;1759588;81;21151;-49
2021/03/05 02:00:10;;;;;;;0.78;0.78;;;;;;;3.25;85.51;100146.86;1759195;81;21121;-50
2021/03/05 02:03:11;;;;;;;3.27;0.37;;;;;;;3.23;85.60;100154.38;1759562;81;21117;-48
2021/03/05 02:06:12;;;;;;;3.20;1.62;;;;;;;3.20;85.68;100154.86;1759546;81;21139;-49
2021/03/05 02:09:14;;;;;;;0.65;0.65;;;;;;;3.18;85.74;100152.38;1759607;81;21029;-49
2021/03/05 02:12:16;;;;;;;1.35;1.27;;;;;;;3.18;85.90;100161.02;1787684;80;21178;-49
2021/03/05 02:15:18;;;;;;;1.32;1.22;;;;;;;3.16;86.04;100167.18;1787993;79;21143;-49
2021/03/05 02:18:31;;;;;;;2.10;1.90;;;;;;;3.13;86.15;100160.91;1734886;80;21546;-49
2021/03/05 02:22:03;;;;;;;2.50;1.85;;;;;;;3.10;86.26;100169.49;1750554;81;21688;-48
2021/03/05 02:25:40;;;;;;;2.80;2.60;;;;;;;3.09;86.37;100166.48;1750601;81;21170;-49
2021/03/05 02:29:03;;;;;;;0.85;0.85;;;;;;;3.06;86.44;100174.53;1747752;81;21182;-49
2021/03/05 02:32:05;;;;;;;1.80;1.02;;;;;;;3.05;86.56;100172.09;1750684;81;21203;-49
2021/03/05 02:35:06;;;;;;;2.30;1.75;;;;;;;3.02;86.38;100180.13;1748041;81;21143;-49
2021/03/05 02:38:08;;;;;;;5.40;1.70;;;;;;;3.02;86.39;100178.78;1725286;82;21179;-49
2021/03/05 02:41:10;;;;;;;1.65;0.65;;;;;;;3.03;86.42;100182.30;1725622;82;21177;-49
2021/03/05 02:44:11;;;;;;;0.65;0.65;;;;;;;3.01;86.23;100177.93;1724865;82;21182;-49
2021/03/05 02:47:08;;;;;;;0.85;0.85;;;;;;;2.99;86.05;100180.08;1733156;82;21126;-48
2021/03/05 02:50:08;;;;;;;0.37;0.37;;;;;;;2.99;85.59;100183.28;1733036;82;21151;-49
2021/03/05 02:53:11;;;;;;;1.57;1.35;;;;;;;2.99;85.36;100188.17;1731847;82;21508;-49
2021/03/05 02:56:19;;;;;;;0.40;0.40;;;;;;;2.96;85.25;100187.27;1690122;82;21174;-49
2021/03/05 02:59:19;;;;;;;1.67;1.57;;;;;;;2.92;85.44;100198.27;1731653;82;21154;-49
2021/03/05 03:02:20;;;;;;;0.90;0.90;;;;;;;2.89;85.50;100184.40;1726360;82;21151;-49
2021/03/05 03:05:23;;;;;;;1.85;0.85;;;;;;;2.88;85.39;100198.43;1726689;82;21422;-49
2021/03/05 03:08:25;;;;;;;1.25;0.93;;;;;;;2.86;85.41;100192.44;1727551;82;21197;-49
2021/03/05 03:11:25;;;;;;;0.30;0.30;;;;;;;2.85;85.41;100198.09;1732431;82;21154;-48
2021/03/05 03:14:26;;;;;;;1.65;0.47;;;;;;;2.86;85.37;100205.93;1708729;82;21170;-49
2021/03/05 03:17:27;;;;;;;0.37;0.37;;;;;;;2.85;85.40;100207.53;1708567;82;21170;-49
2021/03/05 03:20:27;;;;;;;0.90;0.90;;;;;;;2.85;85.28;100212.40;1706896;82;21169;-48
2021/03/05 03:23:29;;;;;;;1.52;1.42;;;;;;;2.85;85.26;100221.84;1732614;82;21135;-49
2021/03/05 03:26:29;;;;;;;3.00;1.32;;;;;;;2.84;85.31;100217.48;1733951;81;21186;-49
2021/03/05 03:29:32;;;;;;;0.78;0.78;;;;;;;2.82;85.32;100219.63;1734198;81;21194;-49
2021/03/05 03:32:32;;;;;;;1.32;1.32;;;;;;;2.82;85.36;100227.72;1741140;81;21138;-49
2021/03/05 03:35:32;;;;;;;1.37;1.37;;;;;;;2.81;85.30;100228.75;1750327;81;21142;-49
2021/03/05 03:38:37;;;;;;;2.92;2.72;;;;;;;2.82;85.24;100222.32;1756616;81;21563;-49
2021/03/05 03:41:38;;;;;;;0.98;0.98;;;;;;;2.82;85.22;100230.41;1733498;81;21150;-50
2021/03/05 03:44:38;;;;;;;0.50;0.50;;;;;;;2.83;85.23;100229.88;1709886;82;21667;-49
2021/03/05 03:47:39;;;;;;;0.23;0.23;;;;;;;2.82;85.23;100233.12;1751671;81;21190;-49
2021/03/05 03:50:43;;;;;;;2.60;2.22;;;;;;;2.81;85.33;100243.59;1765005;80;21140;-49
2021/03/05 03:53:44;;;;;;;0.57;0.50;;;;;;;2.81;85.42;100239.55;1745926;81;21118;-49
2021/03/05 03:56:44;;;;;;;1.82;1.72;;;;;;;2.80;85.46;100241.97;1729045;80;21166;-49
2021/03/05 03:59:44;;;;;;;1.85;1.60;;;;;;;2.79;85.53;100244.35;1741242;80;21907;-49
2021/03/05 04:02:48;;;;;;;2.62;2.12;;;;;;;2.76;85.66;100246.17;1743153;81;21146;-49
2021/03/05 04:05:50;;;;;;;1.25;1.20;;;;;;;2.73;85.74;100248.81;1736873;81;21118;-49
2021/03/05 04:08:52;;;;;;;0.68;0.68;;;;;;;2.69;85.91;100246.27;1787981;80;21135;-49
2021/03/05 04:11:55;;;;;;;2.37;2.12;;;;;;;2.68;86.05;100237.08;1735016;81;21578;-49
2021/03/05 04:14:56;;;;;;;1.07;1.07;;;;;;;2.65;86.16;100250.51;1752091;80;21130;-49
2021/03/05 04:17:57;;;;;;;1.72;1.72;;;;;;;2.63;86.29;100243.70;1769707;80;21107;-49
2021/03/05 04:20:57;;;;;;;0.72;0.72;;;;;;;2.62;86.40;100246.09;1763355;80;21158;-48
2021/03/05 04:23:58;;;;;;;1.90;1.60;;;;;;;2.62;86.42;100244.73;1762806;80;21169;-49
2021/03/05 04:26:59;;;;;;;0.80;0.80;;;;;;;2.61;86.54;100241.22;1731154;81;21090;-49
2021/03/05 04:29:59;;;;;;;1.10;0.80;;;;;;;2.59;86.72;100250.07;1730501;81;21138;-49
2021/03/05 04:33:00;;;;;;;1.90;0.93;;;;;;;2.57;87.00;100253.02;1776322;80;21170;-50
2021/03/05 04:36:01;;;;;;;1.00;0.98;;;;;;;2.56;87.24;100254.05;1791480;80;21110;-49
2021/03/05 04:39:05;;;;;;;1.25;0.55;;;;;;;2.53;87.40;100251.83;1772923;80;21147;-49
2021/03/05 04:42:06;;;;;;;6.03;2.10;;;;;;;2.52;87.53;100256.94;1756539;80;21173;-49
2021/03/05 04:45:08;;;;;;;2.12;0.70;;;;;;;2.50;87.61;100252.30;1737841;82;21523;-48
2021/03/05 04:48:09;;;;;;;0.70;0.70;;;;;;;2.50;87.66;100251.48;1737932;82;21142;-48
2021/03/05 04:51:11;;;;;;;0.47;0.47;;;;;;;2.49;87.73;100266.00;1751412;81;21150;-49
2021/03/05 04:54:12;;;;;;;1.37;1.27;;;;;;;2.46;87.78;100264.59;1740249;80;21000;-49
2021/03/05 04:57:12;;;;;;;1.40;1.10;;;;;;;2.48;87.78;100275.98;1748778;80;21153;-49
2021/03/05 05:00:15;;;;;;;2.67;0.50;;;;;;;2.48;87.76;100276.51;1737849;81;21166;-49
2021/03/05 05:03:15;;;;;;;6.15;0.98;;;;;;;2.48;87.70;100277.32;1753005;80;21122;-49
2021/03/05 05:06:19;;;;;;;7.50;1.25;;;;;;;2.47;87.67;100277.01;1771270;79;21119;-49
2021/03/05 05:09:20;;;;;;;0.85;0.85;;;;;;;2.47;87.60;100272.97;1725195;82;21723;-48
2021/03/05 05:12:21;;;;;;;1.55;1.52;;;;;;;2.48;87.48;100277.85;1743950;81;21218;-49
2021/03/05 05:15:21;;;;;;;1.65;1.55;;;;;;;2.48;87.43;100285.41;1750419;81;21228;-49
2021/03/05 05:18:22;;;;;;;1.00;1.00;;;;;;;2.47;87.39;100277.01;1741798;81;21165;-49
2021/03/05 05:21:22;;;;;;;0.40;0.40;;;;;;;2.45;87.45;100280.48;1767541;80;21592;-48
2021/03/05 05:24:24;;;;;;;0.23;0.23;;;;;;;2.44;87.54;100284.22;1770068;80;21209;-49
2021/03/05 05:27:24;;;;;;;0.62;0.62;;;;;;;2.44;87.43;100290.96;1764914;80;21170;-49
2021/03/05 05:30:27;;;;;;;0.37;0.37;;;;;;;2.44;87.28;100284.75;1770194;80;21158;-49
2021/03/05 05:33:27;;;;;;;0.65;0.65;;;;;;;2.44;87.18;100301.75;1781197;80;21178;-49
2021/03/05 05:36:28;;;;;;;2.67;1.98;;;;;;;2.44;86.96;100309.84;1752252;81;21450;-48
2021/03/05 05:39:28;;;;;;;0.62;0.62;;;;;;;2.45;86.76;100309.31;1772826;80;21126;-50
2021/03/05 05:42:28;;;;;;;2.67;2.47;;;;;;;2.44;86.67;100305.80;1772877;80;21151;-49
2021/03/05 05:45:29;;;;;;;4.12;1.10;;;;;;;2.44;86.35;100311.72;1734558;81;21462;-49
2021/03/05 05:48:29;;;;;;;0.40;0.40;;;;;;;2.43;86.29;100319.00;1771597;80;21142;-49
2021/03/05 05:51:38;;;;;;;4.20;1.95;;;;;;;2.42;86.06;100314.63;1737277;80;21141;-49
2021/03/05 05:54:41;;;;;;;0.78;0.78;;;;;;;2.42;85.81;100310.59;1780767;80;21115;-49
2021/03/05 05:57:43;;;;;;;0.20;0.20;;;;;;;2.43;85.66;100323.04;1725378;81;21197;-49
2021/03/05 06:00:44;;;;;;;2.20;1.35;;;;;;;2.42;85.50;100325.42;1755009;80;21166;-49
2021/03/05 06:03:44;;;;;;;0.45;0.45;;;;;;;2.41;85.39;100331.87;1752339;80;21133;-48
2021/03/05 06:06:45;;;;;;;0.80;0.80;;;;;;;2.40;85.25;100332.95;1750010;80;22186;-49
2021/03/05 06:09:45;;;;;;;0.70;0.70;;;;;;;2.40;85.06;100327.55;1747720;80;21097;-49
2021/03/05 06:12:48;;;;;;;2.27;1.10;;;;;;;2.41;84.93;100334.58;1745547;80;21789;-49
2021/03/05 06:15:49;;;;;;;0.65;0.65;;;;;;;2.44;84.98;100327.91;1749152;81;21169;-49
2021/03/05 06:18:54;;;;;;;0.68;0.68;;;;;;;2.46;85.01;100326.62;1742525;81;21189;-49
2021/03/05 06:21:55;;;;;;;0.47;0.47;;;;;;;2.48;84.88;100328.57;1752073;80;21135;-49
2021/03/05 06:24:57;;;;;;;0.78;0.72;;;;;;;2.50;84.55;100323.77;1793139;79;21143;-49
2021/03/05 06:27:57;;;;;;;1.30;1.30;;;;;;;2.52;84.69;100329.77;1761797;81;21173;-49
2021/03/05 06:30:58;;;;;;;0.75;0.75;;;;;;;2.53;84.83;100330.05;1739223;81;21165;-50
2021/03/05 06:34:03;;;;;;;0.75;0.75;;;;;;;2.59;84.83;100326.42;1762199;81;21477;-49
2021/03/05 06:37:12;;;;;;;0.10;0.10;;;;;;;2.65;84.59;100331.98;1793510;80;20976;-49
2021/03/05 06:40:13;;;;;;;0.35;0.35;;;;;;;2.67;84.32;100339.29;1762102;81;21586;-49
2021/03/05 06:43:13;;;;;;;1.05;0.82;;;;;;;2.68;83.87;100336.91;1762069;81;21457;-50
2021/03/05 06:46:44;;;;;;;0.72;0.60;;;;;;;2.71;83.47;100330.52;1731770;82;21155;-49
2021/03/05 06:49:56;;;;;;;1.77;1.67;;;;;;;2.78;82.80;100333.94;1859018;76;29550;-48
2021/03/05 06:52:56;;;;;;;1.77;1.65;;;;;;;2.75;82.63;100351.12;1815765;78;21119;-47
2021/03/05 06:55:59;;;;;;;0.50;0.50;;;;;;;2.74;82.29;100349.47;1811954;79;21125;-47
2021/03/05 06:59:15;;;;;;;0.65;0.65;;;;;;;2.74;82.33;100350.28;1815626;79;21190;-47
2021/03/05 07:02:22;;;;;;;3.08;1.00;;;;;;;2.77;82.64;100354.42;1815380;79;21194;-47
2021/03/05 07:05:23;;;;;;;0.85;0.85;;;;;;;2.80;81.64;100352.61;1779590;80;21180;-48
2021/03/05 07:08:45;;;;;;;0.70;0.70;;;;;;;2.77;81.59;100355.77;1751828;81;21103;-47
2021/03/05 07:11:48;;;;;;;0.10;0.10;;;;;;;2.76;81.91;100357.62;1807098;77;21138;-47
2021/03/05 07:14:53;;;;;;;0.47;0.47;;;;;;;2.73;81.56;100358.63;1788669;80;21724;-47
2021/03/05 07:17:54;;;;;;;1.07;1.02;;;;;;;2.71;81.57;100362.89;1788514;80;21155;-47
2021/03/05 07:20:54;;;;;;;0.70;0.70;;;;;;;2.72;81.68;100362.36;1820898;78;21458;-47
2021/03/05 07:23:54;;;;;;;0.98;0.88;;;;;;;2.70;81.05;100357.74;1816224;78;21161;-47
2021/03/05 07:27:02;;;;;;;0.40;0.40;;;;;;;2.65;81.31;100360.31;1787220;80;21158;-47
2021/03/05 07:30:03;;;;;;;0.30;0.30;;;;;;;2.61;81.43;100361.27;1788438;80;21146;-47
2021/03/05 07:33:04;;;;;;;1.52;1.12;;;;;;;2.58;81.54;100367.14;1791830;80;21130;-47
2021/03/05 07:36:04;;;;;;;0.25;0.25;;;;;;;2.56;81.49;100371.40;1792430;79;21122;-47
2021/03/05 07:39:10;;;;;;;0.53;0.53;;;;;;;2.57;81.56;100370.86;1792585;79;21470;-47
2021/03/05 07:42:11;;;;;;;2.67;1.15;;;;;;;2.59;81.35;100368.77;1756962;81;21201;-47
2021/03/05 07:45:15;;;;;;;1.22;1.20;;;;;;;2.62;81.56;100374.23;1788230;80;21799;-48
2021/03/05 07:48:16;;;;;;;0.20;0.20;;;;;;;2.65;81.50;100368.41;1754126;81;21405;-47
2021/03/05 07:51:19;;;;;;;0.80;0.80;;;;;;;2.69;81.74;100368.22;1788186;80;21126;-47
2021/03/05 07:54:20;;;;;;;0.15;0.15;;;;;;;2.71;81.43;100371.52;1714009;81;21564;-47
2021/03/05 07:57:28;;;;;;;0.57;0.57;;;;;;;2.75;81.24;100372.72;1801047;78;21115;-47
2021/03/05 08:00:51;;;;;;;0.72;0.72;;;;;;;2.76;81.08;100377.05;1787634;80;21155;-47
2021/03/05 08:03:59;;;;;;;0.10;0.10;;;;;;;2.74;80.73;100372.41;1776660;80;21139;-46
2021/03/05 08:07:15;;;;;;;0.10;0.10;;;;;;;2.76;81.43;100375.70;1800441;79;21486;-47
2021/03/05 08:10:17;;;;;;;0.75;0.75;;;;;;;2.78;81.08;100373.59;1800165;79;20975;-47
2021/03/05 08:16:47;;;;;;;1.98;1.47;;;;;;;2.80;81.25;100380.95;1800224;79;21524;-47
2021/03/05 08:19:51;;;;;;;1.20;1.12;;;;;;;2.79;81.01;100374.73;1800513;79;21142;-47
2021/03/05 08:23:09;;;;;;;1.15;1.15;;;;;;;2.78;81.06;100370.91;1776250;79;21173;-45
2021/03/05 08:26:10;;;;;;;0.95;0.75;;;;;;;2.76;80.70;100377.05;1800323;79;21111;-44
2021/03/05 08:29:10;;;;;;;0.40;0.40;;;;;;;2.76;80.72;100375.17;1800574;79;21158;-44
2021/03/05 08:32:12;;;;;;;0.65;0.65;;;;;;;2.75;80.35;100384.86;1758365;80;21179;-45
2021/03/05 08:35:37;;;;;;;1.15;1.10;;;;;;;2.75;79.87;100378.11;1769085;81;21459;-44
2021/03/05 08:38:43;;;;;;;1.75;1.22;;;;;;;2.76;80.23;100379.75;1768829;81;21143;-44
2021/03/05 08:41:43;;;;;;;0.20;0.20;;;;;;;2.79;80.67;100386.88;1768899;81;21147;-45
2021/03/05 08:44:43;;;;;;;0.70;0.70;;;;;;;2.84;80.43;100399.66;1768892;81;21187;-43
2021/03/05 08:47:46;;;;;;;1.17;0.55;;;;;;;2.86;80.32;100401.60;1769550;79;21134;-44
2021/03/05 08:50:47;;;;;;;1.35;0.85;;;;;;;2.90;80.31;100403.33;1768910;81;21161;-45
2021/03/05 08:53:59;;;;;;;3.58;2.72;;;;;;;2.92;80.35;100400.70;1768904;81;21178;-44
2021/03/05 08:57:00;;;;;;;1.07;0.62;;;;;;;2.94;80.45;100393.20;1769164;81;21143;-44
2021/03/05 09:00:00;;;;;;;0.20;0.20;;;;;;;2.95;80.51;100384.03;1768977;81;21667;-44
2021/03/05 09:03:22;;;;;;;0.78;0.78;;;;;;;2.99;81.03;100390.63;1768831;81;21198;-44
2021/03/05 09:06:22;;;;;;;2.47;1.10;;;;;;;3.03;80.83;100404.48;1776299;79;21142;-44
2021/03/05 09:09:32;;;;;;;0.20;0.20;;;;;;;3.04;80.46;100394.49;1800497;79;21245;-44
2021/03/05 09:12:34;;;;;;;1.20;0.75;;;;;;;2.99;80.05;100398.73;1800472;79;21142;-44
2021/03/05 09:15:55;;;;;;;2.55;1.30;;;;;;;3.01;80.25;100398.48;1800522;79;21150;-44
2021/03/05 09:19:00;;;;;;;0.00;0.00;;;;;;;3.00;80.44;100404.41;1800356;79;21145;-44
2021/03/05 09:22:16;;;;;;;1.42;1.35;;;;;;;3.06;79.63;100422.09;1791757;79;21612;-45
2021/03/05 09:25:20;;;;;;;0.30;0.30;;;;;;;3.06;79.71;100426.95;1768636;81;21418;-44
2021/03/05 09:28:20;;;;;;;3.10;0.33;;;;;;;3.07;79.38;100429.97;1768610;81;21305;-44
2021/03/05 09:31:26;;;;;;;1.70;1.60;;;;;;;3.09;79.15;100430.56;1768484;81;21207;-44
2021/03/05 09:34:26;;;;;;;1.70;1.45;;;;;;;3.11;79.12;100424.92;1768177;81;21462;-44
2021/03/05 09:37:31;;;;;;;0.70;0.57;;;;;;;3.14;79.83;100415.00;1768417;81;21162;-44
2021/03/05 09:40:32;;;;;;;3.50;0.57;;;;;;;3.20;80.50;100410.86;1769529;79;21197;-45
2021/03/05 09:43:32;;;;;;;1.15;1.15;;;;;;;3.30;80.27;100412.99;1768544;81;21154;-45
2021/03/05 09:46:37;;;;;;;2.45;2.05;;;;;;;3.39;80.47;100408.91;1768591;81;21154;-44
2021/03/05 09:49:38;;;;;;;2.75;1.47;;;;;;;3.44;80.65;100413.61;1766635;81;21150;-46
2021/03/05 09:52:38;;;;;;;0.68;0.68;;;;;;;3.43;79.63;100417.34;1765918;81;21663;-44
2021/03/05 09:55:40;;;;;;;0.13;0.13;;;;;;;3.36;79.52;100417.48;1764622;81;21505;-45
2021/03/05 09:58:41;;;;;;;1.20;0.98;;;;;;;3.37;79.78;100417.77;1757765;81;21158;-45
2021/03/05 10:01:49;;;;;;;3.02;2.47;;;;;;;3.35;79.21;100415.00;1757637;81;21163;-44
2021/03/05 10:04:52;;;;;;;1.32;0.23;;;;;;;3.30;79.68;100423.80;1757727;81;21601;-46
2021/03/05 10:07:53;;;;;;;1.47;1.35;;;;;;;3.29;79.89;100430.27;1768455;81;21126;-44
2021/03/05 10:11:16;;;;;;;0.42;0.40;;;;;;;3.29;79.56;100435.66;1770406;81;21122;-45
2021/03/05 10:14:36;;;;;;;2.37;0.47;;;;;;;3.33;79.17;100430.08;1746257;81;21603;-45
2021/03/05 10:17:36;;;;;;;0.30;0.30;;;;;;;3.37;79.22;100427.22;1739924;82;21143;-45
2021/03/05 10:20:36;;;;;;;0.90;0.90;;;;;;;3.44;79.19;100429.28;1726753;82;21008;-45
2021/03/05 10:23:36;;;;;;;3.65;2.02;;;;;;;3.52;79.28;100436.76;1739802;82;21150;-44
2021/03/05 10:26:37;;;;;;;3.55;1.90;;;;;;;3.65;79.26;100437.88;1739952;82;21134;-45
2021/03/05 10:30:01;;;;;;;0.35;0.35;;;;;;;3.83;79.00;100439.14;1738752;82;21154;-47
2021/03/05 10:33:01;;;;;;;0.37;0.37;;;;;;;3.91;78.08;100432.55;1722489;83;21600;-44
2021/03/05 10:36:01;;;;;;;0.13;0.13;;;;;;;3.87;77.86;100415.95;1722344;83;21158;-48
2021/03/05 10:39:03;;;;;;;0.72;0.72;;;;;;;3.82;77.69;100410.44;1722242;83;21147;-48
2021/03/05 10:42:09;;;;;;;4.45;1.75;;;;;;;3.80;77.48;100417.14;1722423;83;21143;-49
2021/03/05 10:45:12;;;;;;;0.62;0.62;;;;;;;3.78;77.23;100430.88;1722321;83;21147;-48
2021/03/05 10:48:13;;;;;;;0.57;0.57;;;;;;;3.73;77.10;100428.06;1723442;82;21142;-48
2021/03/05 10:51:14;;;;;;;0.75;0.75;;;;;;;3.66;76.63;100430.90;1757385;80;21577;-49
2021/03/05 10:54:16;;;;;;;0.45;0.45;;;;;;;3.63;77.08;100433.23;1759049;81;21123;-48
2021/03/05 10:57:22;;;;;;;0.37;0.37;;;;;;;3.65;76.60;100427.06;1758967;81;21130;-48
2021/03/05 11:00:24;;;;;;;0.82;0.82;;;;;;;3.64;76.40;100419.49;1759020;81;21130;-48
2021/03/05 11:03:25;;;;;;;0.80;0.55;;;;;;;3.65;76.78;100418.95;1759464;80;21181;-49
2021/03/05 11:06:25;;;;;;;2.37;2.27;;;;;;;3.66;77.19;100417.92;1776118;79;21167;-48
2021/03/05 11:09:27;;;;;;;1.20;1.07;;;;;;;3.65;77.09;100423.02;1800050;79;21142;-48
2021/03/05 11:12:27;;;;;;;0.70;0.70;;;;;;;3.72;77.08;100422.38;1813154;78;21115;-49
2021/03/05 11:15:27;;;;;;;1.85;1.17;;;;;;;3.83;76.89;100417.52;1813265;79;21103;-49
2021/03/05 11:18:29;;;;;;;0.10;0.10;;;;;;;3.88;76.60;100420.33;1808769;79;21479;-48
2021/03/05 11:21:29;;;;;;;1.05;0.93;;;;;;;3.94;76.59;100421.80;1785503;79;21178;-49
2021/03/05 11:24:30;;;;;;;0.72;0.72;;;;;;;3.97;76.63;100426.19;1768865;81;21142;-48
2021/03/05 11:27:34;;;;;;;3.27;1.00;;;;;;;3.99;76.48;100424.61;1768775;81;21663;-48
2021/03/05 11:30:33;;;;;;;0.53;0.53;;;;;;;4.02;76.31;100424.94;1768832;81;21131;-48
2021/03/05 11:33:33;;;;;;;0.42;0.20;;;;;;;4.06;76.58;100433.42;1768858;81;21153;-48
2021/03/05 11:36:34;;;;;;;3.33;1.45;;;;;;;4.08;76.06;100436.72;1768831;81;21471;-48
2021/03/05 11:39:35;;;;;;;0.40;0.40;;;;;;;4.05;76.18;100433.92;1770123;79;21453;-48
2021/03/05 11:42:36;;;;;;;1.65;1.07;;;;;;;4.00;76.32;100427.59;1768965;81;21417;-48
2021/03/05 11:45:38;;;;;;;0.20;0.20;;;;;;;3.91;75.86;100421.73;1769157;81;21412;-48
2021/03/05 11:48:39;;;;;;;0.00;0.00;;;;;;;3.82;75.37;100429.36;1768828;81;21137;-48
2021/03/05 11:51:40;;;;;;;3.02;1.75;;;;;;;3.71;75.28;100432.91;1757127;81;21164;-49
2021/03/05 11:54:40;;;;;;;0.10;0.10;;;;;;;3.64;75.63;100426.78;1759711;80;21098;-48
2021/03/05 11:57:40;;;;;;;1.70;1.60;;;;;;;3.66;76.33;100439.01;1788147;80;21135;-48
2021/03/05 12:00:41;;;;;;;1.30;1.20;;;;;;;3.67;76.04;100431.72;1788215;80;21150;-48
2021/03/05 12:03:42;;;;;;;4.17;0.93;;;;;;;3.63;75.35;100444.85;1788232;80;21477;-48
2021/03/05 12:06:42;;;;;;;1.15;1.12;;;;;;;3.62;75.77;100445.92;1788176;80;21174;-48
2021/03/05 12:09:44;;;;;;;2.75;2.55;;;;;;;3.66;76.17;100447.64;1787960;79;21146;-48
2021/03/05 12:12:44;;;;;;;0.70;0.70;;;;;;;3.73;75.96;100452.38;1762052;79;21575;-48
2021/03/05 12:15:46;;;;;;;1.42;1.37;;;;;;;3.78;75.90;100451.69;1741178;81;21142;-48
2021/03/05 12:18:46;;;;;;;1.02;0.93;;;;;;;3.80;76.02;100450.92;1741168;82;21975;-47
2021/03/05 12:21:48;;;;;;;9.25;1.10;;;;;;;3.82;76.52;100439.36;1741078;81;21145;-48
2021/03/05 12:24:48;;;;;;;4.80;1.17;;;;;;;3.77;75.92;100436.00;1741119;81;21114;-48
2021/03/05 12:27:50;;;;;;;1.47;1.32;;;;;;;3.72;76.36;100448.05;1741379;82;21547;-48
2021/03/05 12:30:51;;;;;;;1.00;0.93;;;;;;;3.74;76.54;100442.42;1756793;81;21529;-48
2021/03/05 12:33:54;;;;;;;0.98;0.82;;;;;;;3.77;76.31;100446.81;1756865;81;21150;-49
2021/03/05 12:36:55;;;;;;;0.80;0.80;;;;;;;3.77;76.60;100440.59;1757082;81;21171;-48
2021/03/05 12:39:55;;;;;;;0.25;0.25;;;;;;;3.80;76.71;100436.87;1732606;81;21139;-48
2021/03/05 12:42:57;;;;;;;1.27;1.20;;;;;;;3.85;76.72;100447.81;1756923;81;21134;-49
2021/03/05 12:45:57;;;;;;;4.58;1.27;;;;;;;3.86;76.61;100454.88;1757435;80;21140;-48
2021/03/05 12:49:00;;;;;;;2.27;1.05;;;;;;;3.88;76.79;100460.87;1757233;81;21190;-49
2021/03/05 12:52:00;;;;;;;2.47;2.27;;;;;;;3.84;76.65;100471.86;1770034;80;21573;-49
2021/03/05 12:55:01;;;;;;;0.37;0.33;;;;;;;3.79;76.45;100483.90;1771806;80;21185;-49
2021/03/05 12:58:01;;;;;;;0.28;0.28;;;;;;;3.76;76.39;100484.37;1771702;80;21978;-48
2021/03/05 13:01:02;;;;;;;2.17;0.40;;;;;;;3.74;76.17;100494.59;1771805;80;21133;-49
2021/03/05 13:04:04;;;;;;;0.88;0.78;;;;;;;3.72;76.23;100487.77;1763095;80;21154;-48
2021/03/05 13:07:05;;;;;;;0.90;0.90;;;;;;;3.64;75.79;100496.52;1765804;80;21150;-48
2021/03/05 13:10:05;;;;;;;0.20;0.20;;;;;;;3.51;75.77;100502.64;1771814;80;21584;-48
2021/03/05 13:13:06;;;;;;;1.75;1.05;;;;;;;3.38;75.55;100498.27;1771941;80;21087;-48
2021/03/05 13:16:08;;;;;;;1.05;0.68;;;;;;;3.28;75.92;100504.75;1771777;80;21123;-48
2021/03/05 13:19:09;;;;;;;0.60;0.60;;;;;;;3.17;75.58;100503.67;1772086;80;21205;-48
2021/03/05 13:22:09;;;;;;;0.30;0.30;;;;;;;3.07;75.19;100510.15;1741175;82;21143;-48
2021/03/05 13:25:13;;;;;;;0.62;0.62;;;;;;;2.95;74.19;100505.51;1741130;82;21437;-49
2021/03/05 13:28:13;;;;;;;1.07;0.78;;;;;;;2.84;74.80;100496.81;1741276;82;21155;-49
2021/03/05 13:31:14;;;;;;;0.45;0.45;;;;;;;2.76;74.32;100501.18;1741180;82;21127;-47
2021/03/05 13:34:14;;;;;;;1.35;0.37;;;;;;;2.70;74.64;100500.75;1741090;82;21183;-48
2021/03/05 13:37:14;;;;;;;0.25;0.25;;;;;;;2.63;75.11;100498.66;1742301;80;21157;-48
2021/03/05 13:40:16;;;;;;;0.60;0.30;;;;;;;2.57;75.54;100507.95;1741275;82;21149;-49
2021/03/05 13:43:16;;;;;;;0.60;0.60;;;;;;;2.50;76.31;100520.69;1741202;82;21541;-48
2021/03/05 13:46:18;;;;;;;2.67;2.37;;;;;;;2.38;76.53;100518.43;1741193;82;21102;-48
2021/03/05 13:49:18;;;;;;;0.23;0.23;;;;;;;2.30;76.86;100521.39;1741213;82;21126;-48
2021/03/05 13:52:20;;;;;;;0.72;0.40;;;;;;;2.23;77.28;100521.48;1756737;80;21595;-48
2021/03/05 13:55:20;;;;;;;0.80;0.42;;;;;;;2.19;78.29;100524.84;1783850;80;21158;-48
2021/03/05 13:58:21;;;;;;;1.17;1.12;;;;;;;2.11;78.88;100521.38;1790535;80;21554;-49
2021/03/05 14:01:21;;;;;;;0.30;0.30;;;;;;;2.06;78.99;100518.53;1790580;80;21150;-49
2021/03/05 14:04:22;;;;;;;0.10;0.10;;;;;;;2.02;78.95;100510.57;1790501;80;21838;-49
2021/03/05 14:07:22;;;;;;;0.47;0.47;;;;;;;1.99;78.95;100519.64;1790547;80;21165;-49
2021/03/05 14:10:22;;;;;;;0.08;0.08;;;;;;;1.96;79.05;100539.77;1790071;79;21138;-49
2021/03/05 14:13:23;;;;;;;2.25;0.50;;;;;;;1.97;79.44;100540.59;1759095;81;21178;-49
2021/03/05 14:16:25;;;;;;;0.10;0.10;;;;;;;1.96;80.13;100533.56;1759417;81;21114;-49
2021/03/05 14:19:25;;;;;;;2.08;0.75;;;;;;;1.95;80.58;100538.10;1758814;81;21262;-49
2021/03/05 14:22:28;;;;;;;0.72;0.70;;;;;;;1.94;80.68;100539.16;1759099;81;21198;-49
2021/03/05 14:25:29;;;;;;;0.82;0.80;;;;;;;1.92;80.76;100535.86;1759192;81;21134;-49